Hazen, North Dakota
Current Conditions -  °F | °C
As of 6:35 PM on Monday 24 Nov 2014 (Local Time) from KHZE Reporting Station
Overcast Overcast  
Wind Chill: 14°   Ceiling: 4600
Heat Index: 23°   Visibility: 10mi
Dew Point: 16°   Wind: 8mph
Humidity: 74%   Direction: 240°WSW
Pressure: 30"   Gusts: NA
Location:  47.29°N, 101.62°W
Report Text: KHZE 250135Z AUTO 24007KT 10SM OVC046 M05/M09 A3000 RMK AO2
Loading
Personal Weather Stations






























Interactive Weather Map New forecast layout! Learn more

10-Day Weather Forecast

Advertisements
Track Severe Weather on mobile